sensor_id;sensor_type;location;lat;lon;timestamp;P1;durP1;ratioP1;P2;durP2;ratioP2
69369;SDS011;56530;42.640;23.372;2024-01-06T00:00:27;8.10;;;5.53;;
69369;SDS011;56530;42.640;23.372;2024-01-06T00:02:53;6.43;;;4.63;;
69369;SDS011;56530;42.640;23.372;2024-01-06T00:05:18;9.27;;;5.50;;
69369;SDS011;56530;42.640;23.372;2024-01-06T00:07:43;7.93;;;6.13;;
69369;SDS011;56530;42.640;23.372;2024-01-06T00:10:09;14.70;;;9.53;;
69369;SDS011;56530;42.640;23.372;2024-01-06T00:12:34;12.65;;;8.40;;
69369;SDS011;56530;42.640;23.372;2024-01-06T00:15:00;11.67;;;8.67;;
69369;SDS011;56530;42.640;23.372;2024-01-06T00:17:25;17.10;;;10.87;;
69369;SDS011;56530;42.640;23.372;2024-01-06T00:19:50;17.10;;;10.02;;
69369;SDS011;56530;42.640;23.372;2024-01-06T00:22:17;16.03;;;10.70;;
69369;SDS011;56530;42.640;23.372;2024-01-06T00:24:43;14.75;;;10.77;;
69369;SDS011;56530;42.640;23.372;2024-01-06T00:27:08;16.17;;;10.17;;
69369;SDS011;56530;42.640;23.372;2024-01-06T00:29:35;19.37;;;10.63;;
69369;SDS011;56530;42.640;23.372;2024-01-06T00:32:00;19.43;;;12.30;;
69369;SDS011;56530;42.640;23.372;2024-01-06T00:34:25;19.90;;;12.37;;
69369;SDS011;56530;42.640;23.372;2024-01-06T00:36:51;21.33;;;13.60;;
69369;SDS011;56530;42.640;23.372;2024-01-06T00:39:16;23.83;;;15.63;;
69369;SDS011;56530;42.640;23.372;2024-01-06T00:41:42;30.08;;;16.17;;
69369;SDS011;56530;42.640;23.372;2024-01-06T00:44:07;25.93;;;16.80;;
69369;SDS011;56530;42.640;23.372;2024-01-06T00:46:32;26.20;;;17.83;;
69369;SDS011;56530;42.640;23.372;2024-01-06T00:48:58;22.57;;;16.07;;
69369;SDS011;56530;42.640;23.372;2024-01-06T00:51:23;27.23;;;15.80;;
69369;SDS011;56530;42.640;23.372;2024-01-06T00:53:48;23.47;;;14.80;;
69369;SDS011;56530;42.640;23.372;2024-01-06T00:56:14;21.90;;;14.70;;
69369;SDS011;56530;42.640;23.372;2024-01-06T00:58:39;20.98;;;14.32;;
69369;SDS011;56530;42.640;23.372;2024-01-06T01:01:04;19.37;;;13.53;;
69369;SDS011;56530;42.640;23.372;2024-01-06T01:03:30;18.43;;;13.70;;
69369;SDS011;56530;42.640;23.372;2024-01-06T01:05:55;22.30;;;14.60;;
69369;SDS011;56530;42.640;23.372;2024-01-06T01:08:21;23.30;;;14.07;;
69369;SDS011;56530;42.640;23.372;2024-01-06T01:10:46;23.20;;;13.40;;
69369;SDS011;56530;42.640;23.372;2024-01-06T01:13:12;19.30;;;13.40;;
69369;SDS011;56530;42.640;23.372;2024-01-06T01:15:37;20.03;;;12.83;;
69369;SDS011;56530;42.640;23.372;2024-01-06T01:18:03;17.27;;;11.67;;
69369;SDS011;56530;42.640;23.372;2024-01-06T01:20:28;16.95;;;11.60;;
69369;SDS011;56530;42.640;23.372;2024-01-06T01:22:53;17.97;;;11.87;;
69369;SDS011;56530;42.640;23.372;2024-01-06T01:25:19;15.07;;;11.67;;
69369;SDS011;56530;42.640;23.372;2024-01-06T01:27:44;14.10;;;10.50;;
69369;SDS011;56530;42.640;23.372;2024-01-06T01:30:10;16.58;;;12.10;;
69369;SDS011;56530;42.640;23.372;2024-01-06T01:32:35;15.70;;;11.00;;
69369;SDS011;56530;42.640;23.372;2024-01-06T01:35:02;14.07;;;11.10;;
69369;SDS011;56530;42.640;23.372;2024-01-06T01:37:28;12.90;;;8.45;;
69369;SDS011;56530;42.640;23.372;2024-01-06T01:39:53;9.90;;;8.77;;
69369;SDS011;56530;42.640;23.372;2024-01-06T01:42:19;15.70;;;12.07;;
69369;SDS011;56530;42.640;23.372;2024-01-06T01:44:44;17.33;;;11.23;;
69369;SDS011;56530;42.640;23.372;2024-01-06T01:47:09;14.48;;;10.80;;
69369;SDS011;56530;42.640;23.372;2024-01-06T01:49:35;13.63;;;10.67;;
69369;SDS011;56530;42.640;23.372;2024-01-06T01:52:00;12.25;;;9.25;;
69369;SDS011;56530;42.640;23.372;2024-01-06T01:54:26;10.17;;;8.40;;
69369;SDS011;56530;42.640;23.372;2024-01-06T01:56:52;7.85;;;6.55;;
69369;SDS011;56530;42.640;23.372;2024-01-06T01:59:18;14.43;;;10.57;;
69369;SDS011;56530;42.640;23.372;2024-01-06T02:01:44;11.75;;;9.77;;
69369;SDS011;56530;42.640;23.372;2024-01-06T02:04:10;19.10;;;11.88;;
69369;SDS011;56530;42.640;23.372;2024-01-06T02:06:36;20.80;;;13.43;;
69369;SDS011;56530;42.640;23.372;2024-01-06T02:09:01;20.00;;;15.23;;
69369;SDS011;56530;42.640;23.372;2024-01-06T02:11:27;19.05;;;14.75;;
69369;SDS011;56530;42.640;23.372;2024-01-06T02:13:52;22.53;;;14.23;;
69369;SDS011;56530;42.640;23.372;2024-01-06T02:16:17;18.43;;;13.13;;
69369;SDS011;56530;42.640;23.372;2024-01-06T02:18:43;25.13;;;18.30;;
69369;SDS011;56530;42.640;23.372;2024-01-06T02:21:08;22.93;;;16.00;;
69369;SDS011;56530;42.640;23.372;2024-01-06T02:23:35;19.38;;;13.73;;
69369;SDS011;56530;42.640;23.372;2024-01-06T02:26:01;18.75;;;12.63;;
69369;SDS011;56530;42.640;23.372;2024-01-06T02:28:26;13.43;;;9.40;;
69369;SDS011;56530;42.640;23.372;2024-01-06T02:30:52;9.17;;;7.57;;
69369;SDS011;56530;42.640;23.372;2024-01-06T02:33:17;8.95;;;6.90;;
69369;SDS011;56530;42.640;23.372;2024-01-06T02:35:44;8.07;;;6.90;;
69369;SDS011;56530;42.640;23.372;2024-01-06T02:38:13;10.23;;;7.82;;
69369;SDS011;56530;42.640;23.372;2024-01-06T02:40:38;9.60;;;6.90;;
69369;SDS011;56530;42.640;23.372;2024-01-06T02:43:04;10.18;;;7.20;;
69369;SDS011;56530;42.640;23.372;2024-01-06T02:45:29;9.50;;;7.47;;
69369;SDS011;56530;42.640;23.372;2024-01-06T02:47:54;9.43;;;7.43;;
69369;SDS011;56530;42.640;23.372;2024-01-06T02:50:20;12.15;;;10.32;;
69369;SDS011;56530;42.640;23.372;2024-01-06T02:52:47;12.33;;;10.83;;
69369;SDS011;56530;42.640;23.372;2024-01-06T02:55:12;17.73;;;13.80;;
69369;SDS011;56530;42.640;23.372;2024-01-06T02:57:37;16.87;;;12.73;;
69369;SDS011;56530;42.640;23.372;2024-01-06T03:00:03;18.17;;;13.50;;
69369;SDS011;56530;42.640;23.372;2024-01-06T03:02:29;18.37;;;12.53;;
69369;SDS011;56530;42.640;23.372;2024-01-06T03:04:54;12.90;;;11.55;;
69369;SDS011;56530;42.640;23.372;2024-01-06T03:07:20;14.03;;;10.53;;
69369;SDS011;56530;42.640;23.372;2024-01-06T03:09:45;10.77;;;9.65;;
69369;SDS011;56530;42.640;23.372;2024-01-06T03:12:11;10.90;;;9.20;;
69369;SDS011;56530;42.640;23.372;2024-01-06T03:14:37;10.80;;;9.00;;
69369;SDS011;56530;42.640;23.372;2024-01-06T03:17:03;9.55;;;8.57;;
69369;SDS011;56530;42.640;23.372;2024-01-06T03:19:29;10.30;;;8.40;;
69369;SDS011;56530;42.640;23.372;2024-01-06T03:21:55;9.87;;;8.50;;
69369;SDS011;56530;42.640;23.372;2024-01-06T03:24:21;9.73;;;8.13;;
69369;SDS011;56530;42.640;23.372;2024-01-06T03:26:47;9.67;;;7.83;;
69369;SDS011;56530;42.640;23.372;2024-01-06T03:29:13;8.80;;;7.83;;
69369;SDS011;56530;42.640;23.372;2024-01-06T03:31:41;10.43;;;7.37;;
69369;SDS011;56530;42.640;23.372;2024-01-06T03:34:07;6.90;;;6.20;;
69369;SDS011;56530;42.640;23.372;2024-01-06T03:36:33;9.15;;;6.95;;
69369;SDS011;56530;42.640;23.372;2024-01-06T03:38:59;8.20;;;6.78;;
69369;SDS011;56530;42.640;23.372;2024-01-06T03:41:24;6.83;;;5.93;;
69369;SDS011;56530;42.640;23.372;2024-01-06T03:43:49;6.97;;;6.00;;
69369;SDS011;56530;42.640;23.372;2024-01-06T03:46:15;6.70;;;6.00;;
69369;SDS011;56530;42.640;23.372;2024-01-06T03:48:40;8.00;;;6.18;;
69369;SDS011;56530;42.640;23.372;2024-01-06T03:51:06;6.37;;;5.77;;
69369;SDS011;56530;42.640;23.372;2024-01-06T03:53:32;7.32;;;6.20;;
69369;SDS011;56530;42.640;23.372;2024-01-06T03:55:57;7.15;;;5.70;;
69369;SDS011;56530;42.640;23.372;2024-01-06T03:58:23;7.53;;;5.90;;
69369;SDS011;56530;42.640;23.372;2024-01-06T04:00:48;7.73;;;6.40;;
69369;SDS011;56530;42.640;23.372;2024-01-06T04:03:13;6.67;;;5.73;;
69369;SDS011;56530;42.640;23.372;2024-01-06T04:05:39;7.32;;;6.07;;
69369;SDS011;56530;42.640;23.372;2024-01-06T04:08:04;7.80;;;6.17;;
69369;SDS011;56530;42.640;23.372;2024-01-06T04:10:30;8.27;;;6.90;;
69369;SDS011;56530;42.640;23.372;2024-01-06T04:12:55;7.07;;;6.20;;
69369;SDS011;56530;42.640;23.372;2024-01-06T04:15:20;7.65;;;6.75;;
69369;SDS011;56530;42.640;23.372;2024-01-06T04:17:48;8.23;;;6.47;;
69369;SDS011;56530;42.640;23.372;2024-01-06T04:20:14;7.15;;;5.97;;
69369;SDS011;56530;42.640;23.372;2024-01-06T04:22:39;9.23;;;6.43;;
69369;SDS011;56530;42.640;23.372;2024-01-06T04:25:05;6.50;;;5.70;;
69369;SDS011;56530;42.640;23.372;2024-01-06T04:27:30;8.53;;;6.10;;
69369;SDS011;56530;42.640;23.372;2024-01-06T04:29:56;8.05;;;6.60;;
69369;SDS011;56530;42.640;23.372;2024-01-06T04:32:21;6.80;;;6.07;;
69369;SDS011;56530;42.640;23.372;2024-01-06T04:34:47;8.37;;;6.40;;
69369;SDS011;56530;42.640;23.372;2024-01-06T04:37:12;8.15;;;6.40;;
69369;SDS011;56530;42.640;23.372;2024-01-06T04:39:37;7.83;;;6.57;;
69369;SDS011;56530;42.640;23.372;2024-01-06T04:42:03;9.20;;;6.67;;
69369;SDS011;56530;42.640;23.372;2024-01-06T04:44:29;7.37;;;6.57;;
69369;SDS011;56530;42.640;23.372;2024-01-06T04:46:54;7.90;;;6.70;;
69369;SDS011;56530;42.640;23.372;2024-01-06T04:49:20;8.17;;;7.20;;
69369;SDS011;56530;42.640;23.372;2024-01-06T04:51:45;7.43;;;6.67;;
69369;SDS011;56530;42.640;23.372;2024-01-06T04:54:12;10.30;;;7.95;;
69369;SDS011;56530;42.640;23.372;2024-01-06T04:56:37;8.57;;;7.37;;
69369;SDS011;56530;42.640;23.372;2024-01-06T04:59:03;8.60;;;7.13;;
69369;SDS011;56530;42.640;23.372;2024-01-06T05:01:28;9.17;;;7.37;;
69369;SDS011;56530;42.640;23.372;2024-01-06T05:03:53;10.40;;;7.50;;
69369;SDS011;56530;42.640;23.372;2024-01-06T05:06:19;9.10;;;8.13;;
69369;SDS011;56530;42.640;23.372;2024-01-06T05:08:44;10.17;;;7.40;;
69369;SDS011;56530;42.640;23.372;2024-01-06T05:11:10;7.97;;;7.15;;
69369;SDS011;56530;42.640;23.372;2024-01-06T05:13:37;8.73;;;7.75;;
69369;SDS011;56530;42.640;23.372;2024-01-06T05:16:02;9.60;;;7.43;;
69369;SDS011;56530;42.640;23.372;2024-01-06T05:18:28;8.43;;;7.53;;
69369;SDS011;56530;42.640;23.372;2024-01-06T05:20:54;11.20;;;8.30;;
69369;SDS011;56530;42.640;23.372;2024-01-06T05:23:19;9.02;;;7.32;;
69369;SDS011;56530;42.640;23.372;2024-01-06T05:25:45;9.20;;;7.83;;
69369;SDS011;56530;42.640;23.372;2024-01-06T05:28:10;8.40;;;7.57;;
69369;SDS011;56530;42.640;23.372;2024-01-06T05:30:35;9.73;;;7.53;;
69369;SDS011;56530;42.640;23.372;2024-01-06T05:33:01;9.20;;;8.03;;
69369;SDS011;56530;42.640;23.372;2024-01-06T05:35:26;8.95;;;7.85;;
69369;SDS011;56530;42.640;23.372;2024-01-06T05:37:52;8.80;;;7.47;;
69369;SDS011;56530;42.640;23.372;2024-01-06T05:40:17;10.20;;;7.50;;
69369;SDS011;56530;42.640;23.372;2024-01-06T05:42:42;9.13;;;7.60;;
69369;SDS011;56530;42.640;23.372;2024-01-06T05:45:10;8.97;;;8.07;;
69369;SDS011;56530;42.640;23.372;2024-01-06T05:47:37;8.23;;;7.40;;
69369;SDS011;56530;42.640;23.372;2024-01-06T05:50:03;8.10;;;7.07;;
69369;SDS011;56530;42.640;23.372;2024-01-06T05:52:28;8.23;;;7.30;;
69369;SDS011;56530;42.640;23.372;2024-01-06T05:54:54;8.18;;;7.32;;
69369;SDS011;56530;42.640;23.372;2024-01-06T05:57:19;7.30;;;6.50;;
69369;SDS011;56530;42.640;23.372;2024-01-06T05:59:44;7.70;;;6.47;;
69369;SDS011;56530;42.640;23.372;2024-01-06T06:02:10;7.85;;;6.18;;
69369;SDS011;56530;42.640;23.372;2024-01-06T06:04:36;8.00;;;6.05;;
69369;SDS011;56530;42.640;23.372;2024-01-06T06:07:01;9.17;;;5.40;;
69369;SDS011;56530;42.640;23.372;2024-01-06T06:09:27;6.78;;;5.40;;
69369;SDS011;56530;42.640;23.372;2024-01-06T06:11:53;6.47;;;4.93;;
69369;SDS011;56530;42.640;23.372;2024-01-06T06:14:19;9.43;;;5.83;;
69369;SDS011;56530;42.640;23.372;2024-01-06T06:16:44;6.35;;;5.45;;
69369;SDS011;56530;42.640;23.372;2024-01-06T06:19:10;7.20;;;5.00;;
69369;SDS011;56530;42.640;23.372;2024-01-06T06:21:35;5.60;;;5.07;;
69369;SDS011;56530;42.640;23.372;2024-01-06T06:24:00;5.80;;;4.60;;
69369;SDS011;56530;42.640;23.372;2024-01-06T06:26:26;5.87;;;5.27;;
69369;SDS011;56530;42.640;23.372;2024-01-06T06:28:53;7.67;;;5.00;;
69369;SDS011;56530;42.640;23.372;2024-01-06T06:31:19;7.55;;;5.50;;
69369;SDS011;56530;42.640;23.372;2024-01-06T06:33:44;8.93;;;6.30;;
69369;SDS011;56530;42.640;23.372;2024-01-06T06:36:10;6.67;;;5.93;;
69369;SDS011;56530;42.640;23.372;2024-01-06T06:38:35;8.23;;;6.20;;
69369;SDS011;56530;42.640;23.372;2024-01-06T06:41:01;11.43;;;8.07;;
69369;SDS011;56530;42.640;23.372;2024-01-06T06:43:26;10.97;;;7.63;;
69369;SDS011;56530;42.640;23.372;2024-01-06T06:45:51;8.83;;;6.30;;
69369;SDS011;56530;42.640;23.372;2024-01-06T06:48:18;6.20;;;5.47;;
69369;SDS011;56530;42.640;23.372;2024-01-06T06:50:43;6.40;;;5.10;;
69369;SDS011;56530;42.640;23.372;2024-01-06T06:53:08;7.70;;;6.20;;
69369;SDS011;56530;42.640;23.372;2024-01-06T06:55:34;7.87;;;6.00;;
69369;SDS011;56530;42.640;23.372;2024-01-06T06:57:59;8.45;;;6.60;;
69369;SDS011;56530;42.640;23.372;2024-01-06T07:00:26;8.00;;;7.03;;
69369;SDS011;56530;42.640;23.372;2024-01-06T07:02:51;8.80;;;7.13;;
69369;SDS011;56530;42.640;23.372;2024-01-06T07:05:16;8.50;;;7.60;;
69369;SDS011;56530;42.640;23.372;2024-01-06T07:07:42;9.37;;;7.60;;
69369;SDS011;56530;42.640;23.372;2024-01-06T07:10:11;9.98;;;8.60;;
69369;SDS011;56530;42.640;23.372;2024-01-06T07:12:37;8.90;;;8.00;;
69369;SDS011;56530;42.640;23.372;2024-01-06T07:15:02;10.17;;;9.07;;
69369;SDS011;56530;42.640;23.372;2024-01-06T07:17:28;10.30;;;7.28;;
69369;SDS011;56530;42.640;23.372;2024-01-06T07:19:53;7.63;;;6.47;;
69369;SDS011;56530;42.640;23.372;2024-01-06T07:22:19;11.35;;;8.18;;
69369;SDS011;56530;42.640;23.372;2024-01-06T07:24:45;12.87;;;9.37;;
69369;SDS011;56530;42.640;23.372;2024-01-06T07:27:11;9.70;;;8.00;;
69369;SDS011;56530;42.640;23.372;2024-01-06T07:29:36;9.10;;;7.38;;
69369;SDS011;56530;42.640;23.372;2024-01-06T07:32:02;9.70;;;7.37;;
69369;SDS011;56530;42.640;23.372;2024-01-06T07:34:28;11.35;;;7.70;;
69369;SDS011;56530;42.640;23.372;2024-01-06T07:36:53;9.83;;;6.93;;
69369;SDS011;56530;42.640;23.372;2024-01-06T07:39:19;9.85;;;7.22;;
69369;SDS011;56530;42.640;23.372;2024-01-06T07:41:44;10.87;;;7.20;;
69369;SDS011;56530;42.640;23.372;2024-01-06T07:44:11;11.03;;;6.93;;
69369;SDS011;56530;42.640;23.372;2024-01-06T07:46:37;10.00;;;6.35;;
69369;SDS011;56530;42.640;23.372;2024-01-06T07:49:05;15.75;;;7.78;;
69369;SDS011;56530;42.640;23.372;2024-01-06T07:51:30;13.80;;;7.90;;
69369;SDS011;56530;42.640;23.372;2024-01-06T07:53:56;13.87;;;7.60;;
69369;SDS011;56530;42.640;23.372;2024-01-06T07:56:21;12.07;;;7.53;;
69369;SDS011;56530;42.640;23.372;2024-01-06T07:58:47;9.68;;;7.40;;
69369;SDS011;56530;42.640;23.372;2024-01-06T08:01:12;13.43;;;7.20;;
69369;SDS011;56530;42.640;23.372;2024-01-06T08:03:38;14.80;;;7.57;;
69369;SDS011;56530;42.640;23.372;2024-01-06T08:06:03;12.73;;;6.00;;
69369;SDS011;56530;42.640;23.372;2024-01-06T08:08:29;9.10;;;5.50;;
69369;SDS011;56530;42.640;23.372;2024-01-06T08:10:54;9.73;;;5.30;;
69369;SDS011;56530;42.640;23.372;2024-01-06T08:13:19;8.83;;;5.70;;
69369;SDS011;56530;42.640;23.372;2024-01-06T08:15:45;7.57;;;5.50;;
69369;SDS011;56530;42.640;23.372;2024-01-06T08:18:10;11.33;;;7.10;;
69369;SDS011;56530;42.640;23.372;2024-01-06T08:20:36;10.77;;;4.82;;
69369;SDS011;56530;42.640;23.372;2024-01-06T08:23:01;10.10;;;5.40;;
69369;SDS011;56530;42.640;23.372;2024-01-06T08:25:26;8.97;;;4.83;;
69369;SDS011;56530;42.640;23.372;2024-01-06T08:27:52;7.30;;;5.00;;
69369;SDS011;56530;42.640;23.372;2024-01-06T08:30:18;7.27;;;4.00;;
69369;SDS011;56530;42.640;23.372;2024-01-06T08:32:44;15.77;;;5.55;;
69369;SDS011;56530;42.640;23.372;2024-01-06T08:35:09;7.88;;;4.75;;
69369;SDS011;56530;42.640;23.372;2024-01-06T08:37:35;9.37;;;4.70;;
69369;SDS011;56530;42.640;23.372;2024-01-06T08:40:00;10.20;;;5.87;;
69369;SDS011;56530;42.640;23.372;2024-01-06T08:42:26;8.70;;;5.30;;
69369;SDS011;56530;42.640;23.372;2024-01-06T08:44:51;9.87;;;5.70;;
69369;SDS011;56530;42.640;23.372;2024-01-06T08:47:18;9.47;;;6.53;;
69369;SDS011;56530;42.640;23.372;2024-01-06T08:49:43;11.40;;;6.25;;
69369;SDS011;56530;42.640;23.372;2024-01-06T08:52:09;12.37;;;6.53;;
69369;SDS011;56530;42.640;23.372;2024-01-06T08:54:34;6.93;;;5.40;;
69369;SDS011;56530;42.640;23.372;2024-01-06T08:57:00;7.77;;;5.40;;
69369;SDS011;56530;42.640;23.372;2024-01-06T08:59:25;7.10;;;5.63;;
69369;SDS011;56530;42.640;23.372;2024-01-06T09:01:51;9.90;;;5.60;;
69369;SDS011;56530;42.640;23.372;2024-01-06T09:04:17;11.80;;;6.60;;
69369;SDS011;56530;42.640;23.372;2024-01-06T09:06:43;8.40;;;6.10;;
69369;SDS011;56530;42.640;23.372;2024-01-06T09:09:08;12.70;;;7.50;;
69369;SDS011;56530;42.640;23.372;2024-01-06T09:11:35;13.77;;;9.50;;
69369;SDS011;56530;42.640;23.372;2024-01-06T09:14:00;12.35;;;8.35;;
69369;SDS011;56530;42.640;23.372;2024-01-06T09:16:26;13.37;;;8.70;;
69369;SDS011;56530;42.640;23.372;2024-01-06T09:18:51;15.13;;;11.17;;
69369;SDS011;56530;42.640;23.372;2024-01-06T09:21:16;15.93;;;10.50;;
69369;SDS011;56530;42.640;23.372;2024-01-06T09:23:42;13.33;;;9.27;;
69369;SDS011;56530;42.640;23.372;2024-01-06T09:26:08;18.48;;;10.73;;
69369;SDS011;56530;42.640;23.372;2024-01-06T09:28:33;18.07;;;9.97;;
69369;SDS011;56530;42.640;23.372;2024-01-06T09:30:58;21.90;;;14.53;;
69369;SDS011;56530;42.640;23.372;2024-01-06T09:33:24;23.73;;;16.10;;
69369;SDS011;56530;42.640;23.372;2024-01-06T09:35:49;15.82;;;10.50;;
69369;SDS011;56530;42.640;23.372;2024-01-06T09:38:15;18.20;;;9.93;;
69369;SDS011;56530;42.640;23.372;2024-01-06T09:40:42;18.95;;;10.88;;
69369;SDS011;56530;42.640;23.372;2024-01-06T09:43:09;18.55;;;11.27;;
69369;SDS011;56530;42.640;23.372;2024-01-06T09:45:35;20.00;;;11.18;;
69369;SDS011;56530;42.640;23.372;2024-01-06T09:48:01;23.67;;;11.17;;
69369;SDS011;56530;42.640;23.372;2024-01-06T09:50:40;32.50;;;12.10;;
69369;SDS011;56530;42.640;23.372;2024-01-06T09:53:08;16.83;;;10.98;;
69369;SDS011;56530;42.640;23.372;2024-01-06T09:55:36;17.48;;;10.50;;
69369;SDS011;56530;42.640;23.372;2024-01-06T09:58:01;24.50;;;12.37;;
69369;SDS011;56530;42.640;23.372;2024-01-06T10:00:27;30.60;;;15.53;;
69369;SDS011;56530;42.640;23.372;2024-01-06T10:02:53;19.75;;;12.65;;
69369;SDS011;56530;42.640;23.372;2024-01-06T10:05:20;22.60;;;14.70;;
69369;SDS011;56530;42.640;23.372;2024-01-06T10:07:45;23.00;;;16.25;;
69369;SDS011;56530;42.640;23.372;2024-01-06T10:10:11;23.92;;;13.75;;
69369;SDS011;56530;42.640;23.372;2024-01-06T10:12:37;24.00;;;14.73;;
69369;SDS011;56530;42.640;23.372;2024-01-06T10:15:04;24.23;;;16.73;;
69369;SDS011;56530;42.640;23.372;2024-01-06T10:17:31;31.33;;;22.05;;
69369;SDS011;56530;42.640;23.372;2024-01-06T10:19:56;28.33;;;19.80;;
69369;SDS011;56530;42.640;23.372;2024-01-06T10:22:22;31.88;;;21.55;;
69369;SDS011;56530;42.640;23.372;2024-01-06T10:24:47;34.53;;;22.67;;
69369;SDS011;56530;42.640;23.372;2024-01-06T10:27:13;35.87;;;23.27;;
69369;SDS011;56530;42.640;23.372;2024-01-06T10:29:38;34.80;;;22.77;;
69369;SDS011;56530;42.640;23.372;2024-01-06T10:32:03;37.17;;;23.10;;
69369;SDS011;56530;42.640;23.372;2024-01-06T10:34:29;34.90;;;24.33;;
69369;SDS011;56530;42.640;23.372;2024-01-06T10:36:57;32.03;;;24.23;;
69369;SDS011;56530;42.640;23.372;2024-01-06T10:39:22;36.07;;;23.13;;
69369;SDS011;56530;42.640;23.372;2024-01-06T10:41:48;33.95;;;23.48;;
69369;SDS011;56530;42.640;23.372;2024-01-06T10:44:14;30.85;;;22.02;;
69369;SDS011;56530;42.640;23.372;2024-01-06T10:46:40;34.40;;;23.10;;
69369;SDS011;56530;42.640;23.372;2024-01-06T10:49:06;36.30;;;22.77;;
69369;SDS011;56530;42.640;23.372;2024-01-06T10:51:36;33.47;;;22.77;;
69369;SDS011;56530;42.640;23.372;2024-01-06T10:54:02;35.85;;;25.48;;
69369;SDS011;56530;42.640;23.372;2024-01-06T10:56:29;35.90;;;23.67;;
69369;SDS011;56530;42.640;23.372;2024-01-06T10:58:54;30.98;;;20.58;;
69369;SDS011;56530;42.640;23.372;2024-01-06T11:01:22;31.88;;;21.65;;
69369;SDS011;56530;42.640;23.372;2024-01-06T11:03:49;28.57;;;19.73;;
69369;SDS011;56530;42.640;23.372;2024-01-06T11:06:14;29.23;;;20.60;;
69369;SDS011;56530;42.640;23.372;2024-01-06T11:11:39;27.60;;;19.03;;
69369;SDS011;56530;42.640;23.372;2024-01-06T11:14:24;29.52;;;18.38;;
69369;SDS011;56530;42.640;23.372;2024-01-06T11:16:50;22.63;;;16.03;;
69369;SDS011;56530;42.640;23.372;2024-01-06T11:24:52;25.55;;;15.15;;
69369;SDS011;56530;42.640;23.372;2024-01-06T11:27:25;23.30;;;13.27;;
69369;SDS011;56530;42.640;23.372;2024-01-06T11:29:55;23.83;;;14.63;;
69369;SDS011;56530;42.640;23.372;2024-01-06T11:32:31;19.13;;;12.15;;
69369;SDS011;56530;42.640;23.372;2024-01-06T11:35:11;27.85;;;15.05;;
69369;SDS011;56530;42.640;23.372;2024-01-06T11:40:09;22.90;;;13.43;;
69369;SDS011;56530;42.640;23.372;2024-01-06T11:42:40;19.83;;;12.32;;
69369;SDS011;56530;42.640;23.372;2024-01-06T11:45:06;18.92;;;12.68;;
69369;SDS011;56530;42.640;23.372;2024-01-06T11:47:32;22.07;;;12.63;;
69369;SDS011;56530;42.640;23.372;2024-01-06T11:49:58;23.95;;;11.75;;
69369;SDS011;56530;42.640;23.372;2024-01-06T11:52:24;20.80;;;11.80;;
69369;SDS011;56530;42.640;23.372;2024-01-06T11:54:51;19.98;;;12.15;;
69369;SDS011;56530;42.640;23.372;2024-01-06T11:57:17;20.05;;;12.38;;
69369;SDS011;56530;42.640;23.372;2024-01-06T11:59:43;16.63;;;10.93;;
69369;SDS011;56530;42.640;23.372;2024-01-06T12:02:11;20.52;;;10.40;;
69369;SDS011;56530;42.640;23.372;2024-01-06T12:04:38;15.38;;;10.02;;
69369;SDS011;56530;42.640;23.372;2024-01-06T12:07:09;17.02;;;10.75;;
69369;SDS011;56530;42.640;23.372;2024-01-06T12:09:34;16.33;;;9.83;;
69369;SDS011;56530;42.640;23.372;2024-01-06T12:12:03;19.60;;;11.93;;
69369;SDS011;56530;42.640;23.372;2024-01-06T12:14:30;17.85;;;11.95;;
69369;SDS011;56530;42.640;23.372;2024-01-06T12:16:57;22.40;;;11.98;;
69369;SDS011;56530;42.640;23.372;2024-01-06T12:19:27;17.88;;;11.73;;
69369;SDS011;56530;42.640;23.372;2024-01-06T12:21:54;15.63;;;10.65;;
69369;SDS011;56530;42.640;23.372;2024-01-06T12:24:20;22.17;;;13.02;;
69369;SDS011;56530;42.640;23.372;2024-01-06T12:26:45;30.43;;;14.67;;
69369;SDS011;56530;42.640;23.372;2024-01-06T12:29:12;19.95;;;12.15;;
69369;SDS011;56530;42.640;23.372;2024-01-06T12:31:38;16.23;;;10.80;;
69369;SDS011;56530;42.640;23.372;2024-01-06T12:34:04;13.57;;;10.55;;
69369;SDS011;56530;42.640;23.372;2024-01-06T12:36:30;17.90;;;10.83;;
69369;SDS011;56530;42.640;23.372;2024-01-06T12:38:57;18.50;;;10.40;;
69369;SDS011;56530;42.640;23.372;2024-01-06T12:41:23;13.32;;;10.60;;
69369;SDS011;56530;42.640;23.372;2024-01-06T12:43:49;15.45;;;10.38;;
69369;SDS011;56530;42.640;23.372;2024-01-06T12:46:14;16.92;;;11.30;;
69369;SDS011;56530;42.640;23.372;2024-01-06T12:48:40;18.40;;;11.77;;
69369;SDS011;56530;42.640;23.372;2024-01-06T12:51:06;22.47;;;16.00;;
69369;SDS011;56530;42.640;23.372;2024-01-06T12:53:32;16.25;;;11.77;;
69369;SDS011;56530;42.640;23.372;2024-01-06T12:55:57;16.80;;;10.07;;
69369;SDS011;56530;42.640;23.372;2024-01-06T12:58:22;15.97;;;10.23;;
69369;SDS011;56530;42.640;23.372;2024-01-06T13:00:48;16.05;;;10.20;;
69369;SDS011;56530;42.640;23.372;2024-01-06T13:03:14;12.77;;;9.30;;
69369;SDS011;56530;42.640;23.372;2024-01-06T13:05:39;15.70;;;10.30;;
69369;SDS011;56530;42.640;23.372;2024-01-06T13:08:05;16.67;;;11.32;;
69369;SDS011;56530;42.640;23.372;2024-01-06T13:10:31;27.30;;;11.80;;
69369;SDS011;56530;42.640;23.372;2024-01-06T13:12:56;15.90;;;10.43;;
69369;SDS011;56530;42.640;23.372;2024-01-06T13:15:21;16.37;;;9.97;;
69369;SDS011;56530;42.640;23.372;2024-01-06T13:17:47;14.40;;;10.13;;
69369;SDS011;56530;42.640;23.372;2024-01-06T13:20:13;19.87;;;11.00;;
69369;SDS011;56530;42.640;23.372;2024-01-06T13:22:41;20.98;;;10.23;;
69369;SDS011;56530;42.640;23.372;2024-01-06T13:25:06;16.40;;;11.03;;
69369;SDS011;56530;42.640;23.372;2024-01-06T13:27:33;19.38;;;9.93;;
69369;SDS011;56530;42.640;23.372;2024-01-06T13:29:59;14.83;;;9.53;;
69369;SDS011;56530;42.640;23.372;2024-01-06T13:32:24;15.90;;;10.00;;
69369;SDS011;56530;42.640;23.372;2024-01-06T13:34:52;16.20;;;10.18;;
69369;SDS011;56530;42.640;23.372;2024-01-06T13:37:19;16.60;;;9.10;;
69369;SDS011;56530;42.640;23.372;2024-01-06T13:39:47;15.10;;;9.98;;
69369;SDS011;56530;42.640;23.372;2024-01-06T13:42:13;13.60;;;10.30;;
69369;SDS011;56530;42.640;23.372;2024-01-06T13:44:38;13.70;;;8.27;;
69369;SDS011;56530;42.640;23.372;2024-01-06T13:47:04;12.80;;;7.85;;
69369;SDS011;56530;42.640;23.372;2024-01-06T13:49:30;12.57;;;7.90;;
69369;SDS011;56530;42.640;23.372;2024-01-06T13:51:55;12.17;;;7.40;;
69369;SDS011;56530;42.640;23.372;2024-01-06T13:54:21;10.77;;;7.82;;
69369;SDS011;56530;42.640;23.372;2024-01-06T13:56:46;11.77;;;7.78;;
69369;SDS011;56530;42.640;23.372;2024-01-06T13:59:12;14.37;;;7.27;;
69369;SDS011;56530;42.640;23.372;2024-01-06T14:01:37;7.60;;;5.33;;
69369;SDS011;56530;42.640;23.372;2024-01-06T14:04:03;11.27;;;6.43;;
69369;SDS011;56530;42.640;23.372;2024-01-06T14:06:30;10.48;;;6.03;;
69369;SDS011;56530;42.640;23.372;2024-01-06T14:08:59;11.20;;;5.27;;
69369;SDS011;56530;42.640;23.372;2024-01-06T14:11:25;7.05;;;5.03;;
69369;SDS011;56530;42.640;23.372;2024-01-06T14:13:51;10.48;;;5.82;;
69369;SDS011;56530;42.640;23.372;2024-01-06T14:16:19;9.50;;;5.05;;
69369;SDS011;56530;42.640;23.372;2024-01-06T14:18:45;9.60;;;5.50;;
69369;SDS011;56530;42.640;23.372;2024-01-06T14:21:11;9.87;;;5.43;;
69369;SDS011;56530;42.640;23.372;2024-01-06T14:23:39;22.93;;;7.13;;